Aeroporto :
LOGIN :

Iscrizione | Disclaimer

   EN    FR    IT 

 










Sommario :    VFR   VFR Marginale   IFR   IFR Intensivo   IFR Molto Intensivo
Visibilità : 
Base nubi : 
>= 8 km
>= 3000ft
5 / 8 km
1000 / 3000 ft
1500m / 5 km
500 / 1000 ft
800 / 1500m
200 / 500 ft
< 800m
< 200 ft
Simboli :   Temporali  Nebbia  Neve Forte  Precipitazioni Forti  Vento > 20 kt
SIGMETs :   Varie  Temporali  Ghiacco  Turbolenza  Onda orograficha  Ceneri Vulcaniche






- Altitudine del aeroporto : 158 ft
- Codice IATA : QAR


EHDL - Deelen Airbase

ULTIMO METAR :
  • 191455Z AUTO 35008KT 310V020 9999 NCD 07/02 Q1041 BLU

METARs OBSOLETI :
  • 191425Z AUTO 34008KT 310V020 9999 FEW025 07/03 Q1040 BLU
  • 191355Z AUTO 34008KT 290V010 9999 FEW027 07/03 Q1040 BLU
  • 191325Z AUTO 32008KT 290V360 9999 FEW026 07/04 Q1040 BLU
  • 191255Z AUTO 35008KT 300V010 9999 OVC042 07/03 Q1039 BLU
  • 191225Z AUTO 32007KT 300V030 9999 FEW033 SCT037 BKN048 07/04 Q1039 BLU

Previsioni scadute.



MetMap, La meteo Aeronautica in un colpo d'occhio ! - Copyright ORBIFLY Dicembre 2007 - Disclaimer

ORBIFLY MET'MAP TEAM :

Programmazione e sviluppo : Alexandra Zaïnal
Concezione : Baudouin d'Aumeries
Aiuto per la programmazione : Marc-Olivier Méhu
Supporto tecnico e logistico : Manuel Goepfert
Aiuto per la traduzione : Arnaldo La Scala

Contatto : metmap@orbifly.com




FONTI E CREDITI :

   NOAA